sensor_id;sensor_type;location;lat;lon;timestamp;P1;durP1;ratioP1;P2;durP2;ratioP2
52031;SDS011;38044;45.148;39.604;2023-08-01T00:00:50;18.35;;;12.93;;
52031;SDS011;38044;45.148;39.604;2023-08-01T00:03:17;28.02;;;15.48;;
52031;SDS011;38044;45.148;39.604;2023-08-01T00:05:42;25.37;;;15.10;;
52031;SDS011;38044;45.148;39.604;2023-08-01T00:08:12;22.43;;;14.97;;
52031;SDS011;38044;45.148;39.604;2023-08-01T00:10:39;23.55;;;14.35;;
52031;SDS011;38044;45.148;39.604;2023-08-01T00:13:06;21.10;;;14.35;;
52031;SDS011;38044;45.148;39.604;2023-08-01T00:15:33;23.10;;;13.90;;
52031;SDS011;38044;45.148;39.604;2023-08-01T00:17:58;22.07;;;14.60;;
52031;SDS011;38044;45.148;39.604;2023-08-01T00:20:25;23.50;;;14.15;;
52031;SDS011;38044;45.148;39.604;2023-08-01T00:22:51;21.50;;;14.00;;
52031;SDS011;38044;45.148;39.604;2023-08-01T00:25:17;25.92;;;15.07;;
52031;SDS011;38044;45.148;39.604;2023-08-01T00:27:43;26.95;;;15.30;;
52031;SDS011;38044;45.148;39.604;2023-08-01T00:30:09;23.73;;;14.10;;
52031;SDS011;38044;45.148;39.604;2023-08-01T00:32:36;21.38;;;14.05;;
52031;SDS011;38044;45.148;39.604;2023-08-01T00:35:02;21.92;;;14.40;;
52031;SDS011;38044;45.148;39.604;2023-08-01T00:37:29;19.55;;;13.45;;
52031;SDS011;38044;45.148;39.604;2023-08-01T00:39:55;20.35;;;13.95;;
52031;SDS011;38044;45.148;39.604;2023-08-01T00:42:21;25.10;;;14.50;;
52031;SDS011;38044;45.148;39.604;2023-08-01T00:44:47;20.83;;;13.67;;
52031;SDS011;38044;45.148;39.604;2023-08-01T00:47:14;20.85;;;14.40;;
52031;SDS011;38044;45.148;39.604;2023-08-01T00:49:40;21.33;;;14.60;;
52031;SDS011;38044;45.148;39.604;2023-08-01T00:52:06;23.05;;;14.45;;
52031;SDS011;38044;45.148;39.604;2023-08-01T00:54:33;21.23;;;14.73;;
52031;SDS011;38044;45.148;39.604;2023-08-01T00:57:04;26.63;;;15.40;;
52031;SDS011;38044;45.148;39.604;2023-08-01T00:59:31;22.17;;;14.25;;
52031;SDS011;38044;45.148;39.604;2023-08-01T01:01:58;22.05;;;14.65;;
52031;SDS011;38044;45.148;39.604;2023-08-01T01:04:25;22.48;;;15.23;;
52031;SDS011;38044;45.148;39.604;2023-08-01T01:09:24;19.80;;;14.65;;
52031;SDS011;38044;45.148;39.604;2023-08-01T01:11:53;20.90;;;13.82;;
52031;SDS011;38044;45.148;39.604;2023-08-01T01:14:18;22.23;;;14.38;;
52031;SDS011;38044;45.148;39.604;2023-08-01T01:16:44;20.10;;;13.67;;
52031;SDS011;38044;45.148;39.604;2023-08-01T01:19:10;18.20;;;13.80;;
52031;SDS011;38044;45.148;39.604;2023-08-01T01:21:37;20.80;;;14.35;;
52031;SDS011;38044;45.148;39.604;2023-08-01T01:24:05;18.88;;;14.27;;
52031;SDS011;38044;45.148;39.604;2023-08-01T01:26:35;20.42;;;14.80;;
52031;SDS011;38044;45.148;39.604;2023-08-01T01:29:02;20.95;;;14.18;;
52031;SDS011;38044;45.148;39.604;2023-08-01T01:31:30;24.20;;;15.38;;
52031;SDS011;38044;45.148;39.604;2023-08-01T01:33:56;23.65;;;14.23;;
52031;SDS011;38044;45.148;39.604;2023-08-01T01:36:23;23.27;;;14.37;;
52031;SDS011;38044;45.148;39.604;2023-08-01T01:38:48;20.65;;;14.43;;
52031;SDS011;38044;45.148;39.604;2023-08-01T01:41:15;18.70;;;14.32;;
52031;SDS011;38044;45.148;39.604;2023-08-01T01:43:40;19.13;;;13.80;;
52031;SDS011;38044;45.148;39.604;2023-08-01T01:46:06;24.20;;;14.23;;
52031;SDS011;38044;45.148;39.604;2023-08-01T01:48:32;23.38;;;14.70;;
52031;SDS011;38044;45.148;39.604;2023-08-01T01:50:58;21.67;;;13.80;;
52031;SDS011;38044;45.148;39.604;2023-08-01T01:53:24;29.67;;;15.45;;
52031;SDS011;38044;45.148;39.604;2023-08-01T01:55:50;25.07;;;13.90;;
52031;SDS011;38044;45.148;39.604;2023-08-01T01:58:16;20.10;;;14.00;;
52031;SDS011;38044;45.148;39.604;2023-08-01T02:00:42;18.35;;;12.80;;
52031;SDS011;38044;45.148;39.604;2023-08-01T02:03:07;20.50;;;13.23;;
52031;SDS011;38044;45.148;39.604;2023-08-01T02:05:39;21.08;;;13.95;;
52031;SDS011;38044;45.148;39.604;2023-08-01T02:08:06;24.33;;;14.00;;
52031;SDS011;38044;45.148;39.604;2023-08-01T02:10:32;19.92;;;13.80;;
52031;SDS011;38044;45.148;39.604;2023-08-01T02:12:58;18.15;;;13.35;;
52031;SDS011;38044;45.148;39.604;2023-08-01T02:15:24;19.23;;;12.98;;
52031;SDS011;38044;45.148;39.604;2023-08-01T02:17:50;18.90;;;12.52;;
52031;SDS011;38044;45.148;39.604;2023-08-01T02:20:16;21.30;;;12.70;;
52031;SDS011;38044;45.148;39.604;2023-08-01T02:22:42;18.13;;;12.75;;
52031;SDS011;38044;45.148;39.604;2023-08-01T02:25:08;16.25;;;11.95;;
52031;SDS011;38044;45.148;39.604;2023-08-01T02:27:33;18.90;;;12.10;;
52031;SDS011;38044;45.148;39.604;2023-08-01T02:29:59;17.07;;;11.53;;
52031;SDS011;38044;45.148;39.604;2023-08-01T02:32:25;20.80;;;12.13;;
52031;SDS011;38044;45.148;39.604;2023-08-01T02:34:51;18.58;;;11.05;;
52031;SDS011;38044;45.148;39.604;2023-08-01T02:37:17;17.67;;;11.32;;
52031;SDS011;38044;45.148;39.604;2023-08-01T02:39:43;16.93;;;11.30;;
52031;SDS011;38044;45.148;39.604;2023-08-01T02:42:09;21.65;;;11.45;;
52031;SDS011;38044;45.148;39.604;2023-08-01T02:44:35;20.95;;;11.50;;
52031;SDS011;38044;45.148;39.604;2023-08-01T02:47:01;28.53;;;10.83;;
52031;SDS011;38044;45.148;39.604;2023-08-01T02:49:26;15.93;;;10.15;;
52031;SDS011;38044;45.148;39.604;2023-08-01T02:51:52;16.70;;;10.30;;
52031;SDS011;38044;45.148;39.604;2023-08-01T02:54:18;17.13;;;9.53;;
52031;SDS011;38044;45.148;39.604;2023-08-01T02:56:44;12.30;;;8.95;;
52031;SDS011;38044;45.148;39.604;2023-08-01T02:59:10;17.02;;;8.93;;
52031;SDS011;38044;45.148;39.604;2023-08-01T03:01:36;12.03;;;8.33;;
52031;SDS011;38044;45.148;39.604;2023-08-01T03:04:03;14.50;;;8.10;;
52031;SDS011;38044;45.148;39.604;2023-08-01T03:06:33;14.38;;;8.20;;
52031;SDS011;38044;45.148;39.604;2023-08-01T03:08:59;12.30;;;7.85;;
52031;SDS011;38044;45.148;39.604;2023-08-01T03:11:25;12.93;;;7.72;;
52031;SDS011;38044;45.148;39.604;2023-08-01T03:13:52;13.93;;;8.07;;
52031;SDS011;38044;45.148;39.604;2023-08-01T03:16:17;14.75;;;7.32;;
52031;SDS011;38044;45.148;39.604;2023-08-01T03:18:43;15.13;;;7.33;;
52031;SDS011;38044;45.148;39.604;2023-08-01T03:21:09;10.98;;;7.30;;
52031;SDS011;38044;45.148;39.604;2023-08-01T03:23:36;12.07;;;7.22;;
52031;SDS011;38044;45.148;39.604;2023-08-01T03:26:02;13.48;;;7.22;;
52031;SDS011;38044;45.148;39.604;2023-08-01T03:28:28;10.48;;;6.70;;
52031;SDS011;38044;45.148;39.604;2023-08-01T03:30:54;11.50;;;6.63;;
52031;SDS011;38044;45.148;39.604;2023-08-01T03:33:20;9.90;;;6.40;;
52031;SDS011;38044;45.148;39.604;2023-08-01T03:35:46;9.53;;;5.50;;
52031;SDS011;38044;45.148;39.604;2023-08-01T03:38:12;12.00;;;6.50;;
52031;SDS011;38044;45.148;39.604;2023-08-01T03:40:38;10.07;;;5.90;;
52031;SDS011;38044;45.148;39.604;2023-08-01T03:43:05;9.77;;;5.80;;
52031;SDS011;38044;45.148;39.604;2023-08-01T03:45:31;13.20;;;6.25;;
52031;SDS011;38044;45.148;39.604;2023-08-01T03:47:58;8.80;;;5.50;;
52031;SDS011;38044;45.148;39.604;2023-08-01T03:50:24;10.38;;;5.15;;
52031;SDS011;38044;45.148;39.604;2023-08-01T03:52:50;10.98;;;5.78;;
52031;SDS011;38044;45.148;39.604;2023-08-01T03:55:16;10.50;;;5.13;;
52031;SDS011;38044;45.148;39.604;2023-08-01T03:57:42;9.75;;;5.50;;
52031;SDS011;38044;45.148;39.604;2023-08-01T04:00:09;8.48;;;5.72;;
52031;SDS011;38044;45.148;39.604;2023-08-01T04:02:43;10.07;;;5.15;;
52031;SDS011;38044;45.148;39.604;2023-08-01T04:05:09;9.13;;;4.93;;
52031;SDS011;38044;45.148;39.604;2023-08-01T04:07:36;13.15;;;6.50;;
52031;SDS011;38044;45.148;39.604;2023-08-01T04:10:02;16.02;;;6.60;;
52031;SDS011;38044;45.148;39.604;2023-08-01T04:12:29;57.80;;;26.13;;
52031;SDS011;38044;45.148;39.604;2023-08-01T04:14:58;17.33;;;9.27;;
52031;SDS011;38044;45.148;39.604;2023-08-01T04:17:24;14.48;;;8.02;;
52031;SDS011;38044;45.148;39.604;2023-08-01T04:19:49;9.75;;;5.60;;
52031;SDS011;38044;45.148;39.604;2023-08-01T04:22:15;15.38;;;5.80;;
52031;SDS011;38044;45.148;39.604;2023-08-01T04:24:41;10.48;;;4.78;;
52031;SDS011;38044;45.148;39.604;2023-08-01T04:27:07;10.30;;;4.15;;
52031;SDS011;38044;45.148;39.604;2023-08-01T04:29:33;7.07;;;3.60;;
52031;SDS011;38044;45.148;39.604;2023-08-01T04:31:59;12.55;;;5.13;;
52031;SDS011;38044;45.148;39.604;2023-08-01T04:34:25;6.32;;;3.40;;
52031;SDS011;38044;45.148;39.604;2023-08-01T04:36:51;8.85;;;4.30;;
52031;SDS011;38044;45.148;39.604;2023-08-01T09:09:14;7.70;;;4.70;;
52031;SDS011;38044;45.148;39.604;2023-08-01T10:20:40;10.07;;;4.50;;
52031;SDS011;38044;45.148;39.604;2023-08-01T10:23:07;7.72;;;4.45;;
52031;SDS011;38044;45.148;39.604;2023-08-01T10:25:34;10.02;;;4.43;;
52031;SDS011;38044;45.148;39.604;2023-08-01T10:28:02;7.47;;;4.05;;
52031;SDS011;38044;45.148;39.604;2023-08-01T10:30:29;8.00;;;4.10;;
52031;SDS011;38044;45.148;39.604;2023-08-01T12:21:20;6.00;;;3.97;;
52031;SDS011;38044;45.148;39.604;2023-08-01T12:23:46;6.87;;;3.97;;
52031;SDS011;38044;45.148;39.604;2023-08-01T12:26:11;8.83;;;4.30;;
52031;SDS011;38044;45.148;39.604;2023-08-01T12:28:37;9.35;;;4.20;;
52031;SDS011;38044;45.148;39.604;2023-08-01T12:31:03;9.75;;;4.47;;
52031;SDS011;38044;45.148;39.604;2023-08-01T12:33:29;9.18;;;4.35;;
52031;SDS011;38044;45.148;39.604;2023-08-01T12:35:56;8.48;;;4.57;;
52031;SDS011;38044;45.148;39.604;2023-08-01T12:38:22;8.30;;;4.43;;
52031;SDS011;38044;45.148;39.604;2023-08-01T12:40:48;10.43;;;4.82;;
52031;SDS011;38044;45.148;39.604;2023-08-01T12:43:14;10.52;;;5.63;;
52031;SDS011;38044;45.148;39.604;2023-08-01T12:45:41;12.47;;;5.30;;
52031;SDS011;38044;45.148;39.604;2023-08-01T12:48:07;10.73;;;5.03;;
52031;SDS011;38044;45.148;39.604;2023-08-01T12:50:33;10.43;;;4.70;;
52031;SDS011;38044;45.148;39.604;2023-08-01T12:52:59;10.10;;;4.82;;
52031;SDS011;38044;45.148;39.604;2023-08-01T12:55:25;11.50;;;4.67;;
52031;SDS011;38044;45.148;39.604;2023-08-01T12:57:51;5.80;;;3.95;;
52031;SDS011;38044;45.148;39.604;2023-08-01T13:00:17;5.38;;;4.13;;
52031;SDS011;38044;45.148;39.604;2023-08-01T13:02:43;5.73;;;3.67;;
52031;SDS011;38044;45.148;39.604;2023-08-01T13:05:09;7.47;;;3.63;;
52031;SDS011;38044;45.148;39.604;2023-08-01T13:07:35;6.13;;;3.30;;
52031;SDS011;38044;45.148;39.604;2023-08-01T13:10:02;4.07;;;2.97;;
52031;SDS011;38044;45.148;39.604;2023-08-01T13:12:28;7.47;;;4.05;;
52031;SDS011;38044;45.148;39.604;2023-08-01T13:14:54;7.45;;;3.53;;
52031;SDS011;38044;45.148;39.604;2023-08-01T13:17:20;5.38;;;3.03;;
52031;SDS011;38044;45.148;39.604;2023-08-01T13:19:45;7.80;;;2.88;;
52031;SDS011;38044;45.148;39.604;2023-08-01T13:22:12;10.93;;;2.92;;
52031;SDS011;38044;45.148;39.604;2023-08-01T13:24:37;3.63;;;2.30;;
52031;SDS011;38044;45.148;39.604;2023-08-01T13:27:04;4.70;;;2.55;;
52031;SDS011;38044;45.148;39.604;2023-08-01T13:29:30;4.47;;;2.70;;
52031;SDS011;38044;45.148;39.604;2023-08-01T13:31:56;6.07;;;2.80;;
52031;SDS011;38044;45.148;39.604;2023-08-01T13:34:22;3.35;;;2.67;;
52031;SDS011;38044;45.148;39.604;2023-08-01T13:36:49;4.53;;;2.88;;
52031;SDS011;38044;45.148;39.604;2023-08-01T13:39:15;9.15;;;3.50;;
52031;SDS011;38044;45.148;39.604;2023-08-01T13:41:40;7.40;;;2.72;;
52031;SDS011;38044;45.148;39.604;2023-08-01T13:44:06;4.53;;;2.80;;
52031;SDS011;38044;45.148;39.604;2023-08-01T13:46:33;3.97;;;2.70;;
52031;SDS011;38044;45.148;39.604;2023-08-01T13:48:59;5.80;;;2.67;;
52031;SDS011;38044;45.148;39.604;2023-08-01T13:51:25;4.22;;;2.67;;
52031;SDS011;38044;45.148;39.604;2023-08-01T13:53:51;4.93;;;2.75;;
52031;SDS011;38044;45.148;39.604;2023-08-01T13:56:17;4.97;;;3.00;;
52031;SDS011;38044;45.148;39.604;2023-08-01T13:58:43;4.03;;;2.53;;
52031;SDS011;38044;45.148;39.604;2023-08-01T14:01:09;6.25;;;3.08;;
52031;SDS011;38044;45.148;39.604;2023-08-01T14:03:36;7.03;;;3.25;;
52031;SDS011;38044;45.148;39.604;2023-08-01T14:06:04;5.95;;;2.85;;
52031;SDS011;38044;45.148;39.604;2023-08-01T14:08:31;6.35;;;2.90;;
52031;SDS011;38044;45.148;39.604;2023-08-01T14:10:57;5.37;;;3.17;;
52031;SDS011;38044;45.148;39.604;2023-08-01T14:13:23;4.78;;;2.70;;
52031;SDS011;38044;45.148;39.604;2023-08-01T14:15:49;6.53;;;2.97;;
52031;SDS011;38044;45.148;39.604;2023-08-01T14:18:16;6.30;;;2.83;;
52031;SDS011;38044;45.148;39.604;2023-08-01T14:20:42;4.60;;;2.70;;
52031;SDS011;38044;45.148;39.604;2023-08-01T14:23:08;6.47;;;3.90;;
52031;SDS011;38044;45.148;39.604;2023-08-01T14:25:34;6.70;;;5.22;;
52031;SDS011;38044;45.148;39.604;2023-08-01T14:28:00;14.60;;;13.15;;
52031;SDS011;38044;45.148;39.604;2023-08-01T14:30:26;6.77;;;5.90;;
52031;SDS011;38044;45.148;39.604;2023-08-01T14:32:58;8.75;;;3.40;;
52031;SDS011;38044;45.148;39.604;2023-08-01T14:35:26;5.05;;;2.97;;
52031;SDS011;38044;45.148;39.604;2023-08-01T14:37:51;6.50;;;4.23;;
52031;SDS011;38044;45.148;39.604;2023-08-01T14:40:17;6.55;;;4.70;;
52031;SDS011;38044;45.148;39.604;2023-08-01T14:42:48;10.18;;;9.10;;
52031;SDS011;38044;45.148;39.604;2023-08-01T14:45:20;13.70;;;12.40;;
52031;SDS011;38044;45.148;39.604;2023-08-01T14:47:46;7.80;;;5.37;;
52031;SDS011;38044;45.148;39.604;2023-08-01T14:50:12;9.55;;;4.97;;
52031;SDS011;38044;45.148;39.604;2023-08-01T14:52:39;12.00;;;6.45;;
52031;SDS011;38044;45.148;39.604;2023-08-01T14:55:06;18.02;;;7.53;;
52031;SDS011;38044;45.148;39.604;2023-08-01T14:57:34;8.95;;;4.45;;
52031;SDS011;38044;45.148;39.604;2023-08-01T15:00:00;7.80;;;5.10;;
52031;SDS011;38044;45.148;39.604;2023-08-01T15:02:26;9.50;;;5.40;;
52031;SDS011;38044;45.148;39.604;2023-08-01T15:04:52;15.95;;;8.02;;
52031;SDS011;38044;45.148;39.604;2023-08-01T15:07:20;14.43;;;7.63;;
52031;SDS011;38044;45.148;39.604;2023-08-01T15:09:47;16.05;;;8.05;;
52031;SDS011;38044;45.148;39.604;2023-08-01T15:12:15;14.02;;;8.93;;
52031;SDS011;38044;45.148;39.604;2023-08-01T15:14:42;23.77;;;14.77;;
52031;SDS011;38044;45.148;39.604;2023-08-01T15:17:08;14.45;;;8.30;;
52031;SDS011;38044;45.148;39.604;2023-08-01T15:19:34;10.73;;;7.10;;
52031;SDS011;38044;45.148;39.604;2023-08-01T15:22:01;12.27;;;8.20;;
52031;SDS011;38044;45.148;39.604;2023-08-01T15:24:29;8.27;;;5.83;;
52031;SDS011;38044;45.148;39.604;2023-08-01T15:26:56;7.53;;;4.97;;
52031;SDS011;38044;45.148;39.604;2023-08-01T15:29:22;8.43;;;4.77;;
52031;SDS011;38044;45.148;39.604;2023-08-01T15:31:48;7.65;;;4.10;;
52031;SDS011;38044;45.148;39.604;2023-08-01T15:34:13;7.33;;;4.07;;
52031;SDS011;38044;45.148;39.604;2023-08-01T15:36:39;6.97;;;3.88;;
52031;SDS011;38044;45.148;39.604;2023-08-01T15:39:05;6.20;;;3.50;;
52031;SDS011;38044;45.148;39.604;2023-08-01T15:41:31;7.10;;;3.38;;
52031;SDS011;38044;45.148;39.604;2023-08-01T15:43:57;4.47;;;3.30;;
52031;SDS011;38044;45.148;39.604;2023-08-01T15:46:23;5.65;;;3.03;;
52031;SDS011;38044;45.148;39.604;2023-08-01T15:48:49;7.30;;;3.43;;
52031;SDS011;38044;45.148;39.604;2023-08-01T15:51:14;4.43;;;3.38;;
52031;SDS011;38044;45.148;39.604;2023-08-01T15:53:40;5.43;;;3.30;;
52031;SDS011;38044;45.148;39.604;2023-08-01T15:56:07;5.90;;;3.40;;
52031;SDS011;38044;45.148;39.604;2023-08-01T15:58:36;6.90;;;3.60;;
52031;SDS011;38044;45.148;39.604;2023-08-01T16:01:02;6.72;;;3.33;;
52031;SDS011;38044;45.148;39.604;2023-08-01T16:03:28;8.23;;;3.70;;
52031;SDS011;38044;45.148;39.604;2023-08-01T16:05:55;7.70;;;3.50;;
52031;SDS011;38044;45.148;39.604;2023-08-01T16:08:21;8.80;;;4.78;;
52031;SDS011;38044;45.148;39.604;2023-08-01T16:10:47;43.87;;;19.57;;
52031;SDS011;38044;45.148;39.604;2023-08-01T16:13:13;21.80;;;12.13;;
52031;SDS011;38044;45.148;39.604;2023-08-01T16:15:39;17.47;;;9.57;;
52031;SDS011;38044;45.148;39.604;2023-08-01T16:18:06;30.55;;;15.02;;
52031;SDS011;38044;45.148;39.604;2023-08-01T16:20:33;48.85;;;25.15;;
52031;SDS011;38044;45.148;39.604;2023-08-01T16:22:59;26.35;;;14.10;;
52031;SDS011;38044;45.148;39.604;2023-08-01T16:25:25;24.42;;;11.95;;
52031;SDS011;38044;45.148;39.604;2023-08-01T16:27:51;21.95;;;9.77;;
52031;SDS011;38044;45.148;39.604;2023-08-01T16:30:17;16.20;;;8.80;;
52031;SDS011;38044;45.148;39.604;2023-08-01T16:32:44;26.15;;;14.32;;
52031;SDS011;38044;45.148;39.604;2023-08-01T16:35:11;14.18;;;10.43;;
52031;SDS011;38044;45.148;39.604;2023-08-01T16:37:38;13.40;;;9.20;;
52031;SDS011;38044;45.148;39.604;2023-08-01T16:40:05;11.00;;;5.23;;
52031;SDS011;38044;45.148;39.604;2023-08-01T16:42:32;10.82;;;6.53;;
52031;SDS011;38044;45.148;39.604;2023-08-01T16:44:57;18.07;;;9.73;;
52031;SDS011;38044;45.148;39.604;2023-08-01T16:47:23;14.27;;;8.52;;
52031;SDS011;38044;45.148;39.604;2023-08-01T16:49:53;9.63;;;6.30;;
52031;SDS011;38044;45.148;39.604;2023-08-01T16:52:20;8.73;;;5.30;;
52031;SDS011;38044;45.148;39.604;2023-08-01T16:54:47;9.48;;;5.05;;
52031;SDS011;38044;45.148;39.604;2023-08-01T17:00:07;9.27;;;4.63;;
52031;SDS011;38044;45.148;39.604;2023-08-01T17:02:34;9.00;;;4.37;;
52031;SDS011;38044;45.148;39.604;2023-08-01T17:05:00;10.75;;;4.70;;
52031;SDS011;38044;45.148;39.604;2023-08-01T17:07:26;9.20;;;4.00;;
52031;SDS011;38044;45.148;39.604;2023-08-01T17:09:52;9.53;;;3.70;;
52031;SDS011;38044;45.148;39.604;2023-08-01T17:12:17;14.35;;;7.05;;
52031;SDS011;38044;45.148;39.604;2023-08-01T17:14:43;10.50;;;4.83;;
52031;SDS011;38044;45.148;39.604;2023-08-01T17:17:09;10.23;;;5.88;;
52031;SDS011;38044;45.148;39.604;2023-08-01T17:19:35;13.87;;;7.90;;
52031;SDS011;38044;45.148;39.604;2023-08-01T17:22:03;9.43;;;5.18;;
52031;SDS011;38044;45.148;39.604;2023-08-01T17:24:30;9.98;;;5.65;;
52031;SDS011;38044;45.148;39.604;2023-08-01T17:26:57;11.57;;;7.17;;
52031;SDS011;38044;45.148;39.604;2023-08-01T17:29:23;22.17;;;13.52;;
52031;SDS011;38044;45.148;39.604;2023-08-01T17:31:49;11.50;;;5.87;;
52031;SDS011;38044;45.148;39.604;2023-08-01T17:34:16;22.80;;;11.82;;
52031;SDS011;38044;45.148;39.604;2023-08-01T17:36:41;52.88;;;25.92;;
52031;SDS011;38044;45.148;39.604;2023-08-01T17:39:07;20.58;;;11.95;;
52031;SDS011;38044;45.148;39.604;2023-08-01T17:41:34;11.25;;;7.18;;
52031;SDS011;38044;45.148;39.604;2023-08-01T17:44:00;14.87;;;8.13;;
52031;SDS011;38044;45.148;39.604;2023-08-01T17:46:27;13.32;;;10.10;;
52031;SDS011;38044;45.148;39.604;2023-08-01T17:48:53;7.70;;;6.38;;
52031;SDS011;38044;45.148;39.604;2023-08-01T17:51:19;7.90;;;7.10;;
52031;SDS011;38044;45.148;39.604;2023-08-01T17:53:46;7.10;;;6.38;;
52031;SDS011;38044;45.148;39.604;2023-08-01T17:56:13;8.13;;;5.82;;
52031;SDS011;38044;45.148;39.604;2023-08-01T17:58:40;7.95;;;6.20;;
52031;SDS011;38044;45.148;39.604;2023-08-01T18:01:06;8.73;;;6.53;;
52031;SDS011;38044;45.148;39.604;2023-08-01T18:03:32;7.85;;;6.00;;
52031;SDS011;38044;45.148;39.604;2023-08-01T18:06:17;11.10;;;7.05;;
52031;SDS011;38044;45.148;39.604;2023-08-01T18:08:43;8.20;;;6.28;;
52031;SDS011;38044;45.148;39.604;2023-08-01T18:11:14;8.23;;;6.70;;
52031;SDS011;38044;45.148;39.604;2023-08-01T18:13:42;7.63;;;5.40;;
52031;SDS011;38044;45.148;39.604;2023-08-01T18:16:23;7.00;;;5.63;;
52031;SDS011;38044;45.148;39.604;2023-08-01T18:18:50;9.50;;;6.10;;
52031;SDS011;38044;45.148;39.604;2023-08-01T18:21:16;9.07;;;5.55;;
52031;SDS011;38044;45.148;39.604;2023-08-01T18:23:42;10.18;;;6.15;;
52031;SDS011;38044;45.148;39.604;2023-08-01T18:26:12;6.90;;;4.67;;
52031;SDS011;38044;45.148;39.604;2023-08-01T18:28:44;6.57;;;4.63;;
52031;SDS011;38044;45.148;39.604;2023-08-01T18:31:10;6.60;;;5.00;;
52031;SDS011;38044;45.148;39.604;2023-08-01T18:33:36;8.45;;;4.60;;
52031;SDS011;38044;45.148;39.604;2023-08-01T18:36:05;7.90;;;4.00;;
52031;SDS011;38044;45.148;39.604;2023-08-01T18:38:35;5.82;;;3.10;;
52031;SDS011;38044;45.148;39.604;2023-08-01T18:41:02;4.23;;;3.70;;
52031;SDS011;38044;45.148;39.604;2023-08-01T18:43:28;4.77;;;3.83;;
52031;SDS011;38044;45.148;39.604;2023-08-01T18:45:55;9.35;;;4.50;;
52031;SDS011;38044;45.148;39.604;2023-08-01T18:48:22;6.28;;;3.92;;
52031;SDS011;38044;45.148;39.604;2023-08-01T18:50:48;8.20;;;4.93;;
52031;SDS011;38044;45.148;39.604;2023-08-01T18:53:14;9.80;;;6.40;;
52031;SDS011;38044;45.148;39.604;2023-08-01T18:55:40;7.75;;;4.45;;
52031;SDS011;38044;45.148;39.604;2023-08-01T18:58:06;9.20;;;4.05;;
52031;SDS011;38044;45.148;39.604;2023-08-01T19:00:32;4.63;;;3.63;;
52031;SDS011;38044;45.148;39.604;2023-08-01T19:02:58;5.25;;;3.42;;
52031;SDS011;38044;45.148;39.604;2023-08-01T19:05:25;5.63;;;3.13;;
52031;SDS011;38044;45.148;39.604;2023-08-01T19:07:52;5.80;;;3.25;;
52031;SDS011;38044;45.148;39.604;2023-08-01T19:10:18;5.35;;;3.50;;
52031;SDS011;38044;45.148;39.604;2023-08-01T19:12:44;11.90;;;4.38;;
52031;SDS011;38044;45.148;39.604;2023-08-01T19:15:10;7.63;;;3.30;;
52031;SDS011;38044;45.148;39.604;2023-08-01T19:17:36;10.97;;;3.97;;
52031;SDS011;38044;45.148;39.604;2023-08-01T19:20:02;16.25;;;4.10;;
52031;SDS011;38044;45.148;39.604;2023-08-01T19:22:29;9.50;;;4.10;;
52031;SDS011;38044;45.148;39.604;2023-08-01T19:24:56;5.60;;;3.25;;
52031;SDS011;38044;45.148;39.604;2023-08-01T19:27:22;7.05;;;3.30;;
52031;SDS011;38044;45.148;39.604;2023-08-01T19:29:48;6.82;;;3.28;;
52031;SDS011;38044;45.148;39.604;2023-08-01T19:32:15;8.35;;;3.75;;
52031;SDS011;38044;45.148;39.604;2023-08-01T19:34:45;7.32;;;3.60;;
52031;SDS011;38044;45.148;39.604;2023-08-01T19:37:12;6.65;;;3.50;;
52031;SDS011;38044;45.148;39.604;2023-08-01T19:39:38;5.95;;;3.75;;
52031;SDS011;38044;45.148;39.604;2023-08-01T19:42:04;7.15;;;3.53;;
52031;SDS011;38044;45.148;39.604;2023-08-01T19:44:31;6.07;;;3.42;;
52031;SDS011;38044;45.148;39.604;2023-08-01T19:46:58;6.87;;;3.80;;
52031;SDS011;38044;45.148;39.604;2023-08-01T19:49:24;5.90;;;3.40;;
52031;SDS011;38044;45.148;39.604;2023-08-01T19:51:50;8.18;;;3.60;;
52031;SDS011;38044;45.148;39.604;2023-08-01T19:54:17;11.37;;;3.93;;
52031;SDS011;38044;45.148;39.604;2023-08-01T19:56:43;6.40;;;3.55;;
52031;SDS011;38044;45.148;39.604;2023-08-01T19:59:09;8.80;;;4.00;;
52031;SDS011;38044;45.148;39.604;2023-08-01T20:01:39;7.93;;;4.00;;
52031;SDS011;38044;45.148;39.604;2023-08-01T20:04:05;9.83;;;3.93;;
52031;SDS011;38044;45.148;39.604;2023-08-01T20:06:31;7.13;;;4.03;;
52031;SDS011;38044;45.148;39.604;2023-08-01T20:08:57;8.48;;;4.28;;
52031;SDS011;38044;45.148;39.604;2023-08-01T20:11:22;7.17;;;4.10;;
52031;SDS011;38044;45.148;39.604;2023-08-01T20:13:48;7.88;;;4.15;;
52031;SDS011;38044;45.148;39.604;2023-08-01T20:16:14;11.20;;;4.53;;
52031;SDS011;38044;45.148;39.604;2023-08-01T20:18:40;7.57;;;4.68;;
52031;SDS011;38044;45.148;39.604;2023-08-01T20:21:06;7.50;;;4.10;;
52031;SDS011;38044;45.148;39.604;2023-08-01T20:23:32;9.32;;;4.68;;
52031;SDS011;38044;45.148;39.604;2023-08-01T20:25:57;7.83;;;4.00;;
52031;SDS011;38044;45.148;39.604;2023-08-01T20:28:23;7.47;;;4.03;;
52031;SDS011;38044;45.148;39.604;2023-08-01T20:30:49;8.17;;;4.20;;
52031;SDS011;38044;45.148;39.604;2023-08-01T20:33:16;10.05;;;4.55;;
52031;SDS011;38044;45.148;39.604;2023-08-01T20:35:42;8.10;;;4.05;;
52031;SDS011;38044;45.148;39.604;2023-08-01T20:38:08;8.73;;;4.25;;
52031;SDS011;38044;45.148;39.604;2023-08-01T20:40:34;7.43;;;4.17;;
52031;SDS011;38044;45.148;39.604;2023-08-01T20:43:03;8.95;;;4.00;;
52031;SDS011;38044;45.148;39.604;2023-08-01T20:45:29;7.83;;;4.50;;
52031;SDS011;38044;45.148;39.604;2023-08-01T20:47:55;8.73;;;4.10;;
52031;SDS011;38044;45.148;39.604;2023-08-01T20:50:22;9.23;;;3.83;;
52031;SDS011;38044;45.148;39.604;2023-08-01T20:52:47;7.73;;;3.93;;
52031;SDS011;38044;45.148;39.604;2023-08-01T20:55:13;8.88;;;3.40;;
52031;SDS011;38044;45.148;39.604;2023-08-01T20:57:39;6.47;;;3.63;;
52031;SDS011;38044;45.148;39.604;2023-08-01T21:00:05;8.80;;;3.72;;
52031;SDS011;38044;45.148;39.604;2023-08-01T21:02:32;6.65;;;3.70;;
52031;SDS011;38044;45.148;39.604;2023-08-01T21:04:58;8.63;;;3.75;;
52031;SDS011;38044;45.148;39.604;2023-08-01T21:07:24;8.98;;;3.47;;
52031;SDS011;38044;45.148;39.604;2023-08-01T21:09:51;7.72;;;3.75;;
52031;SDS011;38044;45.148;39.604;2023-08-01T21:12:17;6.15;;;3.72;;
52031;SDS011;38044;45.148;39.604;2023-08-01T21:14:43;7.35;;;3.65;;
52031;SDS011;38044;45.148;39.604;2023-08-01T21:17:08;5.82;;;3.65;;
52031;SDS011;38044;45.148;39.604;2023-08-01T21:19:35;6.32;;;3.83;;
52031;SDS011;38044;45.148;39.604;2023-08-01T21:22:01;6.45;;;3.60;;
52031;SDS011;38044;45.148;39.604;2023-08-01T21:24:27;7.53;;;4.23;;
52031;SDS011;38044;45.148;39.604;2023-08-01T21:26:53;5.93;;;3.70;;
52031;SDS011;38044;45.148;39.604;2023-08-01T21:29:18;6.20;;;3.70;;
52031;SDS011;38044;45.148;39.604;2023-08-01T21:31:44;7.43;;;3.40;;
52031;SDS011;38044;45.148;39.604;2023-08-01T21:34:10;6.20;;;3.20;;
52031;SDS011;38044;45.148;39.604;2023-08-01T21:36:36;6.95;;;3.40;;
52031;SDS011;38044;45.148;39.604;2023-08-01T21:39:01;7.40;;;3.93;;
52031;SDS011;38044;45.148;39.604;2023-08-01T21:41:27;5.20;;;3.15;;
52031;SDS011;38044;45.148;39.604;2023-08-01T21:43:53;5.93;;;3.40;;
52031;SDS011;38044;45.148;39.604;2023-08-01T21:46:19;6.70;;;3.65;;
52031;SDS011;38044;45.148;39.604;2023-08-01T21:48:44;6.53;;;3.37;;
52031;SDS011;38044;45.148;39.604;2023-08-01T21:51:10;6.00;;;3.42;;
52031;SDS011;38044;45.148;39.604;2023-08-01T21:53:36;5.93;;;3.67;;